Pagrindinis puslapis
METAR-TAF:

METAR-TAF

Oro uostai :

Ocean County, Naujasis Džersis, Jungtinės Amerikos Valstijos

platuma: 39-55-39N, ilguma: 074-17-33W, Aukštis: 25 m

Dabartinis oras

Ataskaita buvo paskelbta 31 minutes, ne 06:56 UTC
Vėjas 8 kt iš Pietvakarių
Temperatūra -2°C
Drėgmė 59%
Slėgis 1013 hPa
Matomumas: 16.1 km
Giedras dangus

METAR: KMJX 280656Z AUTO 23008KT 10SM CLR M02/M09 A2990 RMK AO2 SLP130 T10171094 FZRANO

Laikas: 02:27 (07:27 UTC)


TAF: trūkstamas

Orai ataskaitas ir orų prognozės (METAR, TAF).

turimą stotys yra geltonos ir raudonos taškus žemėlapyje.

Perkelti pele per norėdami pamatyti stoties vardą.

Tada spustelėkite, norėdami matyti oro stebėjimo ir prognozės.

Norėdami pakeisti žemėlapį: spustelėkite ant žalios mygtukų su juodo kryžiaus žemyn,; žalią mygtuką su brūkšneliu, jei norite nutolinti; arba žalių rodyklių gretimoms žemėlapius.


METAR-TAF: